Looxahoma, Mississippi
Current Conditions -  °F | °C
As of 9:55 AM on Thursday 23 Oct 2014 (Local Time) from KUOX Reporting Station
Clear Clear  
Wind Chill: 54°   Ceiling: Unl
Heat Index: 54°   Visibility: 10mi
Dew Point: 43°   Wind: 3mph
Humidity: 67%   Direction: 100°E
Pressure: 30.22"   Gusts: NA
Location:  34.6336°N, 89.8203°W
Report Text: KUOX 231455Z AUTO 10003KT 10SM CLR 12/06 A3022 RMK AO2 PWINO PNO
Loading
Personal Weather Stations






























Interactive Weather Map
Tropical Storm Tracking
New forecast layout! Learn more

10-Day Weather Forecast

Advertisements
Track Severe Weather on mobile